Kawkawlin, MI (48631)

5:09 PM EST on December 06, 2016 (GMT -0500)
Euclid and Wilder | | Change Station

Elev 597 ft 43.62 °N, 83.92 °W | Updated 13 seconds ago

Overcast
Overcast
39.4 °F
Feels Like 39 °F
N
2.0
Wind Variable Wind from SE

Today
High -- | Low -- °F
--% Chance of Precip.
Yesterday
High -- | Low -- °F
Precip. -- in
Pressure 29.72 in
Visibility 9.0 miles
Clouds Overcast 1800 ft
Windchill 39 °F
Dew Point 35 °F
Humidity 86%
Rainfall 0.00 in
Snow Depth Not available.
7:55 AM 4:58 PM
Waxing Crescent, 45% visible
METAR KMBS 062153Z 12004KT 9SM OVC018 04/02 A2970 RMK AO2 SLP064 T00390022
Pressure 29.72 in
Visibility 9.0 miles
Clouds Overcast 1800 ft
Windchill 39 °F
Dew Point 35 °F
Humidity 86%
Rainfall 0.00 in
Snow Depth Not available.
7:55 AM 4:58 PM
Waxing Crescent, 45% visible
METAR KMBS 062153Z 12004KT 9SM OVC018 04/02 A2970 RMK AO2 SLP064 T00390022

10-Day Weather Forecast

Almanac

Astronomy

Dec. 06, 2016 Rise Set
Actual Time
Civil Twilight
Nautical Twilight
Astronomical Twilight
Moon
Length of Visible Light
Length of Day
Tomorrow will be .
, % of the Moon is Illuminated

Today's Extremes

State Highs State Lows

Community

WunderPhotos

Upload Photos

1,956,037 photos uploaded!

WunderBlog® & News

Nearby

Air Quality

  Air Quality AQ Index Pollutant
Not available.

Snow Depth

Station Depth Elevation

Earthquake Activity

City Distance Mag. Time & Date
Minimum magnitude displayed is 2.5.

Coastal Water Temperatures

Place Temperature

Stations

Nearby Weather Stations

Station Location Temp. Windchill Dew Point Humidity Wind Precip. Elev Updated Type
                   

Watches & Warnings

There are currently no watches in effect.